sensor_id;sensor_type;location;lat;lon;timestamp;P1;durP1;ratioP1;P2;durP2;ratioP2
28802;SDS011;15949;55.656;37.422;2023-04-15T00:02:14;4.55;;;1.20;;
28802;SDS011;15949;55.656;37.422;2023-04-15T00:07:22;6.13;;;1.65;;
28802;SDS011;15949;55.656;37.422;2023-04-15T00:12:27;6.78;;;1.90;;
28802;SDS011;15949;55.656;37.422;2023-04-15T00:17:33;4.35;;;1.52;;
28802;SDS011;15949;55.656;37.422;2023-04-15T00:22:40;3.95;;;1.55;;
28802;SDS011;15949;55.656;37.422;2023-04-15T00:27:45;10.15;;;1.85;;
28802;SDS011;15949;55.656;37.422;2023-04-15T00:32:51;3.75;;;1.70;;
28802;SDS011;15949;55.656;37.422;2023-04-15T00:37:57;4.85;;;1.77;;
28802;SDS011;15949;55.656;37.422;2023-04-15T00:43:03;7.38;;;1.92;;
28802;SDS011;15949;55.656;37.422;2023-04-15T00:48:09;9.07;;;1.80;;
28802;SDS011;15949;55.656;37.422;2023-04-15T00:53:16;4.35;;;1.75;;
28802;SDS011;15949;55.656;37.422;2023-04-15T00:58:22;2.78;;;1.50;;
28802;SDS011;15949;55.656;37.422;2023-04-15T01:03:28;3.85;;;1.60;;
28802;SDS011;15949;55.656;37.422;2023-04-15T01:08:34;5.20;;;1.70;;
28802;SDS011;15949;55.656;37.422;2023-04-15T01:13:40;5.93;;;1.65;;
28802;SDS011;15949;55.656;37.422;2023-04-15T01:18:46;3.67;;;1.45;;
28802;SDS011;15949;55.656;37.422;2023-04-15T01:23:53;3.67;;;1.90;;
28802;SDS011;15949;55.656;37.422;2023-04-15T01:29:01;4.07;;;1.70;;
28802;SDS011;15949;55.656;37.422;2023-04-15T01:34:06;4.13;;;1.80;;
28802;SDS011;15949;55.656;37.422;2023-04-15T01:39:12;4.85;;;1.77;;
28802;SDS011;15949;55.656;37.422;2023-04-15T01:44:17;3.13;;;1.63;;
28802;SDS011;15949;55.656;37.422;2023-04-15T01:49:23;4.75;;;2.10;;
28802;SDS011;15949;55.656;37.422;2023-04-15T01:54:28;2.92;;;1.60;;
28802;SDS011;15949;55.656;37.422;2023-04-15T01:59:34;9.05;;;1.77;;
28802;SDS011;15949;55.656;37.422;2023-04-15T02:04:40;3.88;;;1.58;;
28802;SDS011;15949;55.656;37.422;2023-04-15T02:09:46;3.10;;;1.40;;
28802;SDS011;15949;55.656;37.422;2023-04-15T02:14:51;6.85;;;2.10;;
28802;SDS011;15949;55.656;37.422;2023-04-15T02:19:57;8.00;;;2.10;;
28802;SDS011;15949;55.656;37.422;2023-04-15T02:25:03;4.28;;;1.88;;
28802;SDS011;15949;55.656;37.422;2023-04-15T02:30:09;9.52;;;1.80;;
28802;SDS011;15949;55.656;37.422;2023-04-15T02:35:15;4.65;;;1.70;;
28802;SDS011;15949;55.656;37.422;2023-04-15T02:40:23;7.32;;;1.83;;
28802;SDS011;15949;55.656;37.422;2023-04-15T02:45:28;4.88;;;1.90;;
28802;SDS011;15949;55.656;37.422;2023-04-15T02:50:34;6.85;;;2.08;;
28802;SDS011;15949;55.656;37.422;2023-04-15T02:55:41;6.60;;;2.40;;
28802;SDS011;15949;55.656;37.422;2023-04-15T03:00:47;8.18;;;1.95;;
28802;SDS011;15949;55.656;37.422;2023-04-15T03:05:55;9.93;;;2.20;;
28802;SDS011;15949;55.656;37.422;2023-04-15T03:11:00;7.78;;;2.03;;
28802;SDS011;15949;55.656;37.422;2023-04-15T03:16:06;8.30;;;2.10;;
28802;SDS011;15949;55.656;37.422;2023-04-15T03:21:12;5.03;;;2.33;;
28802;SDS011;15949;55.656;37.422;2023-04-15T03:26:27;7.03;;;2.00;;
28802;SDS011;15949;55.656;37.422;2023-04-15T03:31:33;10.75;;;2.33;;
28802;SDS011;15949;55.656;37.422;2023-04-15T03:36:39;4.05;;;1.90;;
28802;SDS011;15949;55.656;37.422;2023-04-15T03:41:44;10.00;;;2.08;;
28802;SDS011;15949;55.656;37.422;2023-04-15T03:46:50;10.07;;;2.00;;
28802;SDS011;15949;55.656;37.422;2023-04-15T03:51:56;6.10;;;2.30;;
28802;SDS011;15949;55.656;37.422;2023-04-15T03:57:01;8.75;;;2.30;;
28802;SDS011;15949;55.656;37.422;2023-04-15T04:02:07;9.55;;;2.35;;
28802;SDS011;15949;55.656;37.422;2023-04-15T04:07:16;9.13;;;2.22;;
28802;SDS011;15949;55.656;37.422;2023-04-15T04:12:22;4.95;;;2.20;;
28802;SDS011;15949;55.656;37.422;2023-04-15T04:17:27;9.07;;;2.10;;
28802;SDS011;15949;55.656;37.422;2023-04-15T04:22:37;4.88;;;1.90;;
28802;SDS011;15949;55.656;37.422;2023-04-15T04:27:44;9.25;;;2.30;;
28802;SDS011;15949;55.656;37.422;2023-04-15T04:32:49;6.07;;;2.05;;
28802;SDS011;15949;55.656;37.422;2023-04-15T04:37:55;7.15;;;2.28;;
28802;SDS011;15949;55.656;37.422;2023-04-15T04:43:01;8.30;;;2.38;;
28802;SDS011;15949;55.656;37.422;2023-04-15T04:48:07;6.45;;;1.92;;
28802;SDS011;15949;55.656;37.422;2023-04-15T04:53:14;8.27;;;1.88;;
28802;SDS011;15949;55.656;37.422;2023-04-15T04:58:20;11.60;;;2.03;;
28802;SDS011;15949;55.656;37.422;2023-04-15T05:03:26;7.15;;;1.90;;
28802;SDS011;15949;55.656;37.422;2023-04-15T05:08:31;4.20;;;1.65;;
28802;SDS011;15949;55.656;37.422;2023-04-15T05:13:37;6.30;;;1.80;;
28802;SDS011;15949;55.656;37.422;2023-04-15T05:18:42;8.27;;;2.08;;
28802;SDS011;15949;55.656;37.422;2023-04-15T05:23:48;4.07;;;1.52;;
28802;SDS011;15949;55.656;37.422;2023-04-15T05:28:54;9.52;;;1.90;;
28802;SDS011;15949;55.656;37.422;2023-04-15T05:33:59;5.20;;;2.03;;
28802;SDS011;15949;55.656;37.422;2023-04-15T05:39:05;5.95;;;1.58;;
28802;SDS011;15949;55.656;37.422;2023-04-15T05:44:11;7.00;;;1.80;;
28802;SDS011;15949;55.656;37.422;2023-04-15T05:49:16;6.90;;;1.70;;
28802;SDS011;15949;55.656;37.422;2023-04-15T05:54:22;6.05;;;1.83;;
28802;SDS011;15949;55.656;37.422;2023-04-15T05:59:28;5.13;;;1.88;;
28802;SDS011;15949;55.656;37.422;2023-04-15T06:04:33;8.82;;;1.90;;
28802;SDS011;15949;55.656;37.422;2023-04-15T06:09:39;4.22;;;1.60;;
28802;SDS011;15949;55.656;37.422;2023-04-15T06:14:45;9.63;;;1.90;;
28802;SDS011;15949;55.656;37.422;2023-04-15T06:19:51;8.43;;;1.98;;
28802;SDS011;15949;55.656;37.422;2023-04-15T06:24:59;9.13;;;2.30;;
28802;SDS011;15949;55.656;37.422;2023-04-15T06:30:05;8.00;;;2.30;;
28802;SDS011;15949;55.656;37.422;2023-04-15T06:35:12;10.50;;;2.17;;
28802;SDS011;15949;55.656;37.422;2023-04-15T06:40:17;7.60;;;1.77;;
28802;SDS011;15949;55.656;37.422;2023-04-15T06:45:23;12.10;;;2.00;;
28802;SDS011;15949;55.656;37.422;2023-04-15T06:50:29;9.98;;;2.60;;
28802;SDS011;15949;55.656;37.422;2023-04-15T06:55:35;8.18;;;2.40;;
28802;SDS011;15949;55.656;37.422;2023-04-15T07:00:40;10.55;;;2.20;;
28802;SDS011;15949;55.656;37.422;2023-04-15T07:05:46;9.52;;;2.42;;
28802;SDS011;15949;55.656;37.422;2023-04-15T07:10:52;3.90;;;1.80;;
28802;SDS011;15949;55.656;37.422;2023-04-15T07:15:58;5.82;;;2.25;;
28802;SDS011;15949;55.656;37.422;2023-04-15T07:21:04;6.93;;;2.08;;
28802;SDS011;15949;55.656;37.422;2023-04-15T07:26:09;8.10;;;2.00;;
28802;SDS011;15949;55.656;37.422;2023-04-15T07:31:15;8.10;;;2.30;;
28802;SDS011;15949;55.656;37.422;2023-04-15T07:36:21;9.75;;;2.40;;
28802;SDS011;15949;55.656;37.422;2023-04-15T07:41:27;6.65;;;1.85;;
28802;SDS011;15949;55.656;37.422;2023-04-15T07:46:33;12.77;;;2.33;;
28802;SDS011;15949;55.656;37.422;2023-04-15T07:51:39;8.63;;;2.28;;
28802;SDS011;15949;55.656;37.422;2023-04-15T07:56:44;8.30;;;2.35;;
28802;SDS011;15949;55.656;37.422;2023-04-15T08:01:50;9.55;;;2.40;;
28802;SDS011;15949;55.656;37.422;2023-04-15T08:06:55;7.57;;;2.10;;
28802;SDS011;15949;55.656;37.422;2023-04-15T08:12:02;10.10;;;2.28;;
28802;SDS011;15949;55.656;37.422;2023-04-15T08:17:07;6.45;;;2.35;;
28802;SDS011;15949;55.656;37.422;2023-04-15T08:22:13;8.05;;;2.63;;
28802;SDS011;15949;55.656;37.422;2023-04-15T08:27:19;10.85;;;2.70;;
28802;SDS011;15949;55.656;37.422;2023-04-15T08:32:25;13.20;;;2.53;;
28802;SDS011;15949;55.656;37.422;2023-04-15T08:37:31;10.65;;;3.35;;
28802;SDS011;15949;55.656;37.422;2023-04-15T08:42:40;7.57;;;2.70;;
28802;SDS011;15949;55.656;37.422;2023-04-15T08:47:48;8.82;;;2.53;;
28802;SDS011;15949;55.656;37.422;2023-04-15T08:53:00;9.43;;;2.45;;
28802;SDS011;15949;55.656;37.422;2023-04-15T08:58:06;10.88;;;2.60;;
28802;SDS011;15949;55.656;37.422;2023-04-15T09:03:12;8.00;;;2.58;;
28802;SDS011;15949;55.656;37.422;2023-04-15T09:08:18;15.23;;;2.85;;
28802;SDS011;15949;55.656;37.422;2023-04-15T09:13:23;6.75;;;2.53;;
28802;SDS011;15949;55.656;37.422;2023-04-15T09:18:30;6.97;;;2.60;;
28802;SDS011;15949;55.656;37.422;2023-04-15T09:23:40;6.97;;;2.60;;
28802;SDS011;15949;55.656;37.422;2023-04-15T09:29:05;5.30;;;2.27;;
28802;SDS011;15949;55.656;37.422;2023-04-15T09:34:12;14.13;;;2.97;;
28802;SDS011;15949;55.656;37.422;2023-04-15T09:39:18;6.70;;;2.83;;
28802;SDS011;15949;55.656;37.422;2023-04-15T09:44:24;11.98;;;2.63;;
28802;SDS011;15949;55.656;37.422;2023-04-15T09:49:30;17.02;;;3.08;;
28802;SDS011;15949;55.656;37.422;2023-04-15T09:54:37;10.55;;;2.90;;
28802;SDS011;15949;55.656;37.422;2023-04-15T09:59:43;9.45;;;2.47;;
28802;SDS011;15949;55.656;37.422;2023-04-15T10:04:48;11.32;;;3.13;;
28802;SDS011;15949;55.656;37.422;2023-04-15T10:09:55;10.98;;;3.15;;
28802;SDS011;15949;55.656;37.422;2023-04-15T10:15:04;7.60;;;2.75;;
28802;SDS011;15949;55.656;37.422;2023-04-15T10:20:11;13.00;;;2.90;;
28802;SDS011;15949;55.656;37.422;2023-04-15T10:25:18;7.05;;;2.85;;
28802;SDS011;15949;55.656;37.422;2023-04-15T10:30:24;9.35;;;2.78;;
28802;SDS011;15949;55.656;37.422;2023-04-15T10:35:31;10.20;;;2.75;;
28802;SDS011;15949;55.656;37.422;2023-04-15T10:40:38;6.60;;;2.75;;
28802;SDS011;15949;55.656;37.422;2023-04-15T10:45:44;8.77;;;3.22;;
28802;SDS011;15949;55.656;37.422;2023-04-15T10:50:56;13.90;;;2.80;;
28802;SDS011;15949;55.656;37.422;2023-04-15T10:56:02;9.15;;;2.70;;
28802;SDS011;15949;55.656;37.422;2023-04-15T11:01:09;5.78;;;2.33;;
28802;SDS011;15949;55.656;37.422;2023-04-15T11:06:15;7.57;;;2.60;;
28802;SDS011;15949;55.656;37.422;2023-04-15T11:11:20;8.05;;;2.80;;
28802;SDS011;15949;55.656;37.422;2023-04-15T11:16:26;8.90;;;2.67;;
28802;SDS011;15949;55.656;37.422;2023-04-15T11:21:32;14.98;;;2.50;;
28802;SDS011;15949;55.656;37.422;2023-04-15T11:26:38;8.40;;;2.42;;
28802;SDS011;15949;55.656;37.422;2023-04-15T11:31:46;7.30;;;2.70;;
28802;SDS011;15949;55.656;37.422;2023-04-15T11:36:55;10.95;;;2.92;;
28802;SDS011;15949;55.656;37.422;2023-04-15T11:42:03;8.48;;;2.75;;
28802;SDS011;15949;55.656;37.422;2023-04-15T11:47:21;7.20;;;2.97;;
28802;SDS011;15949;55.656;37.422;2023-04-15T11:52:27;9.90;;;3.10;;
28802;SDS011;15949;55.656;37.422;2023-04-15T11:57:33;9.55;;;2.72;;
28802;SDS011;15949;55.656;37.422;2023-04-15T12:02:39;9.55;;;3.00;;
28802;SDS011;15949;55.656;37.422;2023-04-15T12:07:58;9.27;;;3.00;;
28802;SDS011;15949;55.656;37.422;2023-04-15T12:13:06;8.32;;;3.00;;
28802;SDS011;15949;55.656;37.422;2023-04-15T12:18:17;8.38;;;3.00;;
28802;SDS011;15949;55.656;37.422;2023-04-15T12:23:23;12.05;;;3.20;;
28802;SDS011;15949;55.656;37.422;2023-04-15T12:28:29;10.68;;;3.20;;
28802;SDS011;15949;55.656;37.422;2023-04-15T12:33:35;10.13;;;3.28;;
28802;SDS011;15949;55.656;37.422;2023-04-15T12:38:40;9.38;;;3.63;;
28802;SDS011;15949;55.656;37.422;2023-04-15T12:43:46;12.40;;;3.75;;
28802;SDS011;15949;55.656;37.422;2023-04-15T12:48:51;12.05;;;3.42;;
28802;SDS011;15949;55.656;37.422;2023-04-15T12:53:57;9.70;;;3.35;;
28802;SDS011;15949;55.656;37.422;2023-04-15T12:59:03;10.15;;;3.33;;
28802;SDS011;15949;55.656;37.422;2023-04-15T13:04:08;10.55;;;3.20;;
28802;SDS011;15949;55.656;37.422;2023-04-15T13:09:14;8.02;;;2.90;;
28802;SDS011;15949;55.656;37.422;2023-04-15T13:14:20;5.95;;;3.10;;
28802;SDS011;15949;55.656;37.422;2023-04-15T13:19:25;8.80;;;3.90;;
28802;SDS011;15949;55.656;37.422;2023-04-15T13:24:31;12.65;;;4.20;;
28802;SDS011;15949;55.656;37.422;2023-04-15T13:29:37;9.13;;;4.80;;
28802;SDS011;15949;55.656;37.422;2023-04-15T13:34:44;12.10;;;4.05;;
28802;SDS011;15949;55.656;37.422;2023-04-15T13:39:50;11.20;;;4.35;;
28802;SDS011;15949;55.656;37.422;2023-04-15T13:44:55;12.93;;;6.35;;
28802;SDS011;15949;55.656;37.422;2023-04-15T13:50:01;12.40;;;6.90;;
28802;SDS011;15949;55.656;37.422;2023-04-15T13:55:07;13.07;;;5.50;;
28802;SDS011;15949;55.656;37.422;2023-04-15T14:00:13;10.98;;;5.07;;
28802;SDS011;15949;55.656;37.422;2023-04-15T14:05:19;12.95;;;4.72;;
28802;SDS011;15949;55.656;37.422;2023-04-15T14:10:24;14.57;;;3.78;;
28802;SDS011;15949;55.656;37.422;2023-04-15T14:15:30;15.25;;;3.60;;
28802;SDS011;15949;55.656;37.422;2023-04-15T14:20:35;11.35;;;3.70;;
28802;SDS011;15949;55.656;37.422;2023-04-15T14:25:41;8.43;;;4.03;;
28802;SDS011;15949;55.656;37.422;2023-04-15T14:30:46;9.13;;;3.38;;
28802;SDS011;15949;55.656;37.422;2023-04-15T14:35:52;6.72;;;3.20;;
28802;SDS011;15949;55.656;37.422;2023-04-15T14:40:58;7.85;;;2.92;;
28802;SDS011;15949;55.656;37.422;2023-04-15T14:46:03;4.45;;;2.58;;
28802;SDS011;15949;55.656;37.422;2023-04-15T14:51:09;6.97;;;2.70;;
28802;SDS011;15949;55.656;37.422;2023-04-15T14:56:14;9.27;;;2.60;;
28802;SDS011;15949;55.656;37.422;2023-04-15T15:01:20;6.82;;;2.83;;
28802;SDS011;15949;55.656;37.422;2023-04-15T15:06:26;7.70;;;2.88;;
28802;SDS011;15949;55.656;37.422;2023-04-15T15:11:31;6.80;;;3.25;;
28802;SDS011;15949;55.656;37.422;2023-04-15T15:16:37;7.68;;;3.13;;
28802;SDS011;15949;55.656;37.422;2023-04-15T15:21:43;8.38;;;2.80;;
28802;SDS011;15949;55.656;37.422;2023-04-15T15:26:48;8.68;;;2.70;;
28802;SDS011;15949;55.656;37.422;2023-04-15T15:31:54;8.25;;;2.60;;
28802;SDS011;15949;55.656;37.422;2023-04-15T15:36:59;6.85;;;2.70;;
28802;SDS011;15949;55.656;37.422;2023-04-15T15:42:05;7.40;;;2.92;;
28802;SDS011;15949;55.656;37.422;2023-04-15T15:47:11;7.55;;;2.80;;
28802;SDS011;15949;55.656;37.422;2023-04-15T15:52:17;9.02;;;2.88;;
28802;SDS011;15949;55.656;37.422;2023-04-15T15:57:23;6.03;;;2.75;;
28802;SDS011;15949;55.656;37.422;2023-04-15T16:02:28;9.40;;;3.03;;
28802;SDS011;15949;55.656;37.422;2023-04-15T16:07:35;11.77;;;3.00;;
28802;SDS011;15949;55.656;37.422;2023-04-15T16:12:41;7.10;;;2.88;;
28802;SDS011;15949;55.656;37.422;2023-04-15T16:17:47;9.05;;;2.90;;
28802;SDS011;15949;55.656;37.422;2023-04-15T16:22:52;12.70;;;3.47;;
28802;SDS011;15949;55.656;37.422;2023-04-15T16:28:00;7.00;;;3.28;;
28802;SDS011;15949;55.656;37.422;2023-04-15T16:33:06;8.35;;;3.30;;
28802;SDS011;15949;55.656;37.422;2023-04-15T16:38:12;11.77;;;3.38;;
28802;SDS011;15949;55.656;37.422;2023-04-15T16:43:17;9.05;;;4.03;;
28802;SDS011;15949;55.656;37.422;2023-04-15T16:48:23;11.38;;;4.20;;
28802;SDS011;15949;55.656;37.422;2023-04-15T16:53:28;15.38;;;5.07;;
28802;SDS011;15949;55.656;37.422;2023-04-15T16:58:34;15.48;;;5.97;;
28802;SDS011;15949;55.656;37.422;2023-04-15T17:03:39;16.02;;;6.03;;
28802;SDS011;15949;55.656;37.422;2023-04-15T17:08:45;17.58;;;5.75;;
28802;SDS011;15949;55.656;37.422;2023-04-15T17:13:51;20.08;;;6.50;;
28802;SDS011;15949;55.656;37.422;2023-04-15T17:18:56;24.08;;;6.65;;
28802;SDS011;15949;55.656;37.422;2023-04-15T17:24:02;25.42;;;6.78;;
28802;SDS011;15949;55.656;37.422;2023-04-15T17:29:08;22.00;;;8.68;;
28802;SDS011;15949;55.656;37.422;2023-04-15T17:34:14;56.15;;;28.33;;
28802;SDS011;15949;55.656;37.422;2023-04-15T17:39:20;56.55;;;27.83;;
28802;SDS011;15949;55.656;37.422;2023-04-15T17:44:25;40.67;;;18.92;;
28802;SDS011;15949;55.656;37.422;2023-04-15T17:49:31;34.13;;;14.15;;
28802;SDS011;15949;55.656;37.422;2023-04-15T17:54:38;29.08;;;11.95;;
28802;SDS011;15949;55.656;37.422;2023-04-15T17:59:43;25.95;;;11.10;;
28802;SDS011;15949;55.656;37.422;2023-04-15T18:04:51;24.42;;;10.02;;
28802;SDS011;15949;55.656;37.422;2023-04-15T18:09:57;18.70;;;7.78;;
28802;SDS011;15949;55.656;37.422;2023-04-15T18:15:02;23.15;;;7.93;;
28802;SDS011;15949;55.656;37.422;2023-04-15T18:20:08;27.95;;;7.88;;
28802;SDS011;15949;55.656;37.422;2023-04-15T18:25:14;22.75;;;7.38;;
28802;SDS011;15949;55.656;37.422;2023-04-15T18:30:20;17.27;;;6.72;;
28802;SDS011;15949;55.656;37.422;2023-04-15T18:35:26;25.02;;;7.05;;
28802;SDS011;15949;55.656;37.422;2023-04-15T18:40:34;23.67;;;6.15;;
28802;SDS011;15949;55.656;37.422;2023-04-15T18:45:40;17.67;;;6.97;;
28802;SDS011;15949;55.656;37.422;2023-04-15T18:50:46;21.98;;;6.28;;
28802;SDS011;15949;55.656;37.422;2023-04-15T18:55:52;23.80;;;6.43;;
28802;SDS011;15949;55.656;37.422;2023-04-15T19:00:58;17.23;;;6.22;;
28802;SDS011;15949;55.656;37.422;2023-04-15T19:06:03;16.48;;;6.30;;
28802;SDS011;15949;55.656;37.422;2023-04-15T19:11:09;31.33;;;6.60;;
28802;SDS011;15949;55.656;37.422;2023-04-15T19:16:14;23.08;;;6.85;;
28802;SDS011;15949;55.656;37.422;2023-04-15T19:21:20;15.50;;;6.68;;
28802;SDS011;15949;55.656;37.422;2023-04-15T19:26:26;17.60;;;6.70;;
28802;SDS011;15949;55.656;37.422;2023-04-15T19:31:32;16.88;;;6.25;;
28802;SDS011;15949;55.656;37.422;2023-04-15T19:36:37;19.50;;;6.53;;
28802;SDS011;15949;55.656;37.422;2023-04-15T19:41:43;20.10;;;7.22;;
28802;SDS011;15949;55.656;37.422;2023-04-15T19:46:49;18.27;;;8.23;;
28802;SDS011;15949;55.656;37.422;2023-04-15T19:51:56;20.58;;;8.98;;
28802;SDS011;15949;55.656;37.422;2023-04-15T19:57:02;20.67;;;7.60;;
28802;SDS011;15949;55.656;37.422;2023-04-15T20:02:08;16.63;;;7.32;;
28802;SDS011;15949;55.656;37.422;2023-04-15T20:07:13;19.73;;;7.50;;
28802;SDS011;15949;55.656;37.422;2023-04-15T20:12:19;23.00;;;7.40;;
28802;SDS011;15949;55.656;37.422;2023-04-15T20:17:25;17.67;;;7.20;;
28802;SDS011;15949;55.656;37.422;2023-04-15T20:22:31;20.05;;;7.30;;
28802;SDS011;15949;55.656;37.422;2023-04-15T20:27:37;20.63;;;7.70;;
28802;SDS011;15949;55.656;37.422;2023-04-15T20:32:42;18.25;;;6.95;;
28802;SDS011;15949;55.656;37.422;2023-04-15T20:37:48;16.88;;;7.13;;
28802;SDS011;15949;55.656;37.422;2023-04-15T20:42:54;20.38;;;7.13;;
28802;SDS011;15949;55.656;37.422;2023-04-15T20:48:00;14.30;;;6.65;;
28802;SDS011;15949;55.656;37.422;2023-04-15T20:53:05;16.23;;;7.13;;
28802;SDS011;15949;55.656;37.422;2023-04-15T20:58:11;17.67;;;6.75;;
28802;SDS011;15949;55.656;37.422;2023-04-15T21:03:17;14.32;;;6.82;;
28802;SDS011;15949;55.656;37.422;2023-04-15T21:08:22;24.13;;;6.88;;
28802;SDS011;15949;55.656;37.422;2023-04-15T21:13:33;17.08;;;5.90;;
28802;SDS011;15949;55.656;37.422;2023-04-15T21:18:38;13.38;;;5.82;;
28802;SDS011;15949;55.656;37.422;2023-04-15T21:23:44;16.35;;;6.45;;
28802;SDS011;15949;55.656;37.422;2023-04-15T21:28:50;17.58;;;5.95;;
28802;SDS011;15949;55.656;37.422;2023-04-15T21:33:55;13.20;;;5.43;;
28802;SDS011;15949;55.656;37.422;2023-04-15T21:39:01;13.55;;;4.90;;
28802;SDS011;15949;55.656;37.422;2023-04-15T21:44:06;13.75;;;5.63;;
28802;SDS011;15949;55.656;37.422;2023-04-15T21:49:12;10.05;;;4.88;;
28802;SDS011;15949;55.656;37.422;2023-04-15T21:54:18;11.57;;;4.88;;
28802;SDS011;15949;55.656;37.422;2023-04-15T21:59:24;11.95;;;5.05;;
28802;SDS011;15949;55.656;37.422;2023-04-15T22:04:30;11.88;;;5.03;;
28802;SDS011;15949;55.656;37.422;2023-04-15T22:09:35;10.38;;;5.43;;
28802;SDS011;15949;55.656;37.422;2023-04-15T22:14:41;12.45;;;5.90;;
28802;SDS011;15949;55.656;37.422;2023-04-15T22:19:47;14.35;;;7.10;;
28802;SDS011;15949;55.656;37.422;2023-04-15T22:24:52;18.45;;;7.28;;
28802;SDS011;15949;55.656;37.422;2023-04-15T22:29:58;17.40;;;7.65;;
28802;SDS011;15949;55.656;37.422;2023-04-15T22:35:04;15.85;;;7.53;;
28802;SDS011;15949;55.656;37.422;2023-04-15T22:40:10;18.30;;;7.18;;
28802;SDS011;15949;55.656;37.422;2023-04-15T22:45:16;14.80;;;6.53;;
28802;SDS011;15949;55.656;37.422;2023-04-15T22:50:22;9.93;;;5.90;;
28802;SDS011;15949;55.656;37.422;2023-04-15T22:55:27;14.10;;;5.55;;
28802;SDS011;15949;55.656;37.422;2023-04-15T23:00:33;11.05;;;5.25;;
28802;SDS011;15949;55.656;37.422;2023-04-15T23:05:39;10.07;;;5.50;;
28802;SDS011;15949;55.656;37.422;2023-04-15T23:10:45;10.45;;;5.28;;
28802;SDS011;15949;55.656;37.422;2023-04-15T23:15:51;13.95;;;5.55;;
28802;SDS011;15949;55.656;37.422;2023-04-15T23:20:56;8.88;;;4.75;;
28802;SDS011;15949;55.656;37.422;2023-04-15T23:26:02;9.90;;;4.10;;
28802;SDS011;15949;55.656;37.422;2023-04-15T23:31:08;9.48;;;4.00;;
28802;SDS011;15949;55.656;37.422;2023-04-15T23:36:14;12.82;;;3.92;;
28802;SDS011;15949;55.656;37.422;2023-04-15T23:41:20;11.25;;;4.15;;
28802;SDS011;15949;55.656;37.422;2023-04-15T23:46:26;11.75;;;3.85;;
28802;SDS011;15949;55.656;37.422;2023-04-15T23:51:31;7.35;;;3.63;;
28802;SDS011;15949;55.656;37.422;2023-04-15T23:56:37;8.10;;;3.92;;
